Time;durP1;ratioP1;P1;durP2;ratioP2;P2;SDS_P1;SDS_P2;PMS_P1;PMS_P2;Temp;Humidity;BMP_temperature;BMP_pressure;BME280_temperature;BME280_humidity;BME280_pressure;Samples;Min_cycle;Max_cycle;Signal;HPM_P1;HPM_P2
2023/07/26 00:00:59;;;;;;;3.00;1.47;;;25.40;50.10;;;;;;4975563;28;20633;-70
2023/07/26 00:03:24;;;;;;;1.70;1.60;;;25.40;50.00;;;;;;4975259;28;20178;-68
2023/07/26 00:05:50;;;;;;;2.67;1.70;;;25.40;50.00;;;;;;4974958;28;20523;-70
2023/07/26 00:08:15;;;;;;;2.23;1.60;;;25.40;50.00;;;;;;4974814;28;20216;-69
2023/07/26 00:10:48;;;;;;;2.53;1.50;;;25.40;49.90;;;;;;4957453;28;20265;-70
2023/07/26 00:13:16;;;;;;;2.20;1.57;;;25.30;49.80;;;;;;4974815;28;20173;-69
2023/07/26 00:15:42;;;;;;;2.47;1.80;;;25.40;49.80;;;;;;4974725;28;20444;-69
2023/07/26 00:18:08;;;;;;;2.20;1.67;;;25.30;49.80;;;;;;4974359;28;20468;-70
2023/07/26 00:20:34;;;;;;;4.00;1.90;;;25.30;49.80;;;;;;4974309;28;20252;-69
2023/07/26 00:22:59;;;;;;;3.47;1.90;;;25.30;49.70;;;;;;4974255;28;20412;-70
2023/07/26 00:25:25;;;;;;;2.00;1.47;;;25.30;49.80;;;;;;4974497;28;20485;-69
2023/07/26 00:27:50;;;;;;;2.40;1.90;;;25.30;49.80;;;;;;4974492;28;20170;-70
2023/07/26 00:30:16;;;;;;;2.80;1.57;;;25.30;49.70;;;;;;4974450;28;20194;-69
2023/07/26 00:32:42;;;;;;;2.60;2.40;;;25.30;49.80;;;;;;4974480;28;20232;-69
2023/07/26 00:35:08;;;;;;;3.30;1.77;;;25.30;49.70;;;;;;4974826;28;20173;-70
2023/07/26 00:37:33;;;;;;;2.63;1.70;;;25.30;49.80;;;;;;4974509;28;20185;-70
2023/07/26 00:39:59;;;;;;;2.20;1.67;;;25.30;49.80;;;;;;4974308;28;20205;-70
2023/07/26 00:42:24;;;;;;;2.23;1.60;;;25.30;49.80;;;;;;4974092;28;20170;-69
2023/07/26 00:44:50;;;;;;;2.03;1.67;;;25.30;49.80;;;;;;4973841;28;20579;-70
2023/07/26 00:47:16;;;;;;;1.93;1.67;;;25.30;49.80;;;;;;4973967;28;20178;-70
2023/07/26 00:49:43;;;;;;;2.00;1.80;;;25.30;49.80;;;;;;4974282;28;20606;-69
2023/07/26 00:52:11;;;;;;;2.67;2.47;;;25.30;49.80;;;;;;4956698;28;20456;-70
2023/07/26 00:54:37;;;;;;;1.80;1.60;;;25.20;49.80;;;;;;4974106;28;20503;-69
2023/07/26 00:57:03;;;;;;;2.30;1.90;;;25.30;49.80;;;;;;4974027;28;20938;-70
2023/07/26 00:59:29;;;;;;;4.17;1.90;;;25.20;49.80;;;;;;4973990;28;20500;-70
2023/07/26 01:01:54;;;;;;;2.60;1.90;;;25.20;49.80;;;;;;4974191;28;20177;-69
2023/07/26 01:04:20;;;;;;;2.03;1.83;;;25.20;49.80;;;;;;4974101;28;20200;-69
2023/07/26 01:07:11;;;;;;;2.23;2.03;;;25.20;49.70;;;;;;4974330;28;20178;-70
2023/07/26 01:10:05;;;;;;;2.73;2.00;;;25.20;49.80;;;;;;4974312;28;20225;-69
2023/07/26 01:12:39;;;;;;;2.10;1.80;;;25.20;49.80;;;;;;4963653;28;20434;-69
2023/07/26 01:15:07;;;;;;;2.60;1.70;;;25.20;49.80;;;;;;4974436;28;20493;-69
2023/07/26 01:17:33;;;;;;;3.30;2.20;;;25.20;49.80;;;;;;4974698;28;20555;-69
2023/07/26 01:19:58;;;;;;;2.73;1.60;;;25.20;49.80;;;;;;4974053;28;20559;-69
2023/07/26 01:22:24;;;;;;;2.90;1.47;;;25.20;49.80;;;;;;4974334;28;20173;-69
2023/07/26 01:24:50;;;;;;;1.97;1.60;;;25.20;49.80;;;;;;4974703;28;20648;-69
2023/07/26 01:27:15;;;;;;;1.53;1.40;;;25.20;49.80;;;;;;4956961;28;20186;-69
2023/07/26 01:29:41;;;;;;;3.60;1.70;;;25.20;49.80;;;;;;4973404;28;20233;-69
2023/07/26 01:32:10;;;;;;;2.67;1.80;;;25.20;49.80;;;;;;4974193;28;20190;-69
2023/07/26 01:34:38;;;;;;;1.63;1.43;;;25.20;49.80;;;;;;4976037;28;20188;-69
2023/07/26 01:37:04;;;;;;;3.47;1.37;;;25.20;49.80;;;;;;4977908;28;20421;-69
2023/07/26 01:39:31;;;;;;;2.17;1.57;;;25.20;50.30;;;;;;4977600;28;20456;-69
2023/07/26 01:41:58;;;;;;;2.20;1.90;;;25.20;49.80;;;;;;4978114;28;20405;-70
2023/07/26 01:44:23;;;;;;;4.33;2.00;;;25.20;49.70;;;;;;4977737;28;20468;-69
2023/07/26 01:46:52;;;;;;;2.37;1.50;;;25.20;49.60;;;;;;4977662;28;20910;-70
2023/07/26 01:49:18;;;;;;;1.70;1.50;;;25.20;49.60;;;;;;4977286;28;20295;-69
2023/07/26 01:51:44;;;;;;;1.80;1.60;;;25.20;49.60;;;;;;4977348;28;20409;-70
2023/07/26 01:54:10;;;;;;;1.97;1.43;;;25.20;49.50;;;;;;4977536;28;20441;-69
2023/07/26 01:56:35;;;;;;;1.53;1.43;;;25.20;49.40;;;;;;4977795;28;20182;-70
2023/07/26 01:59:01;;;;;;;2.30;1.73;;;25.20;49.40;;;;;;4977698;28;20290;-69
2023/07/26 02:01:27;;;;;;;2.53;1.80;;;25.20;49.40;;;;;;4977263;28;20548;-70
2023/07/26 02:03:52;;;;;;;3.10;1.93;;;25.20;49.30;;;;;;4977321;28;20170;-69
2023/07/26 02:06:18;;;;;;;2.27;1.60;;;25.10;49.20;;;;;;4977270;28;20549;-70
2023/07/26 02:08:43;;;;;;;2.80;1.60;;;25.10;49.20;;;;;;4977431;28;20177;-68
2023/07/26 02:11:09;;;;;;;3.97;1.77;;;25.10;49.20;;;;;;4977595;28;20210;-69
2023/07/26 02:13:35;;;;;;;2.90;1.63;;;25.10;49.20;;;;;;4976904;28;20162;-69
2023/07/26 02:16:00;;;;;;;2.30;1.57;;;25.10;49.20;;;;;;4959749;28;20182;-70
2023/07/26 02:18:26;;;;;;;2.37;1.80;;;25.10;49.20;;;;;;4977176;28;20174;-70
2023/07/26 02:20:52;;;;;;;1.57;1.40;;;25.10;49.20;;;;;;4976992;28;20698;-70
2023/07/26 02:23:17;;;;;;;1.87;1.53;;;25.10;49.20;;;;;;4976874;28;20662;-70
2023/07/26 02:25:44;;;;;;;1.63;1.40;;;25.10;49.10;;;;;;4977225;28;20208;-70
2023/07/26 02:28:09;;;;;;;2.40;1.70;;;25.10;49.10;;;;;;4976992;28;20181;-70
2023/07/26 02:30:35;;;;;;;2.80;1.80;;;25.10;49.10;;;;;;4977071;28;20461;-70
2023/07/26 02:33:00;;;;;;;2.23;1.93;;;25.10;49.20;;;;;;4975484;28;20181;-70
2023/07/26 02:35:26;;;;;;;1.97;1.60;;;25.10;49.20;;;;;;4977298;28;20269;-70
2023/07/26 02:37:52;;;;;;;2.13;1.77;;;25.10;49.20;;;;;;4976872;28;20546;-69
2023/07/26 02:40:17;;;;;;;2.30;1.70;;;25.10;49.10;;;;;;4976692;28;20231;-70
2023/07/26 02:42:43;;;;;;;2.17;1.50;;;25.10;49.10;;;;;;4976728;28;20182;-70
2023/07/26 02:45:09;;;;;;;2.00;1.50;;;25.10;49.10;;;;;;4976354;28;20170;-69
2023/07/26 02:47:34;;;;;;;2.80;2.20;;;25.10;49.10;;;;;;4976704;28;20170;-69
2023/07/26 02:50:01;;;;;;;2.00;1.57;;;25.10;49.70;;;;;;4959036;28;20679;-70
2023/07/26 02:52:27;;;;;;;2.63;2.03;;;25.10;49.10;;;;;;4976432;28;20289;-69
2023/07/26 02:54:53;;;;;;;3.07;1.93;;;25.10;49.10;;;;;;4976451;28;20436;-69
2023/07/26 02:57:19;;;;;;;2.87;1.70;;;25.10;49.10;;;;;;4976189;28;20500;-70
2023/07/26 02:59:44;;;;;;;1.90;1.63;;;25.10;49.10;;;;;;4976038;28;20205;-69
2023/07/26 03:02:10;;;;;;;1.97;1.43;;;25.10;49.00;;;;;;4975954;28;20201;-70
2023/07/26 03:04:35;;;;;;;3.10;2.00;;;25.10;49.00;;;;;;4975949;28;20185;-68
2023/07/26 03:07:01;;;;;;;2.33;1.63;;;25.10;49.00;;;;;;4976209;28;20173;-70
2023/07/26 03:09:26;;;;;;;1.93;1.40;;;25.10;49.00;;;;;;4958558;28;20284;-70
2023/07/26 03:11:52;;;;;;;2.27;1.67;;;25.10;49.00;;;;;;4976190;28;20201;-70
2023/07/26 03:14:17;;;;;;;4.70;2.00;;;25.10;49.00;;;;;;4975574;28;20178;-69
2023/07/26 03:16:43;;;;;;;2.03;1.40;;;25.10;49.00;;;;;;4975901;28;20546;-69
2023/07/26 03:19:09;;;;;;;2.80;1.67;;;25.00;49.00;;;;;;4975599;28;20205;-69
2023/07/26 03:21:34;;;;;;;2.20;1.43;;;25.00;49.00;;;;;;4975618;28;20197;-69
2023/07/26 03:24:00;;;;;;;3.43;2.03;;;25.00;48.90;;;;;;4975564;28;20182;-70
2023/07/26 03:26:25;;;;;;;2.40;1.73;;;25.10;49.00;;;;;;4975352;28;20205;-70
2023/07/26 03:28:51;;;;;;;2.40;1.67;;;25.00;48.80;;;;;;4975190;28;20325;-70
2023/07/26 03:31:16;;;;;;;1.70;1.30;;;25.00;48.80;;;;;;4975373;28;20197;-69
2023/07/26 03:33:42;;;;;;;3.33;1.60;;;25.00;48.80;;;;;;4975548;28;20178;-70
2023/07/26 03:36:08;;;;;;;2.53;1.63;;;25.00;48.70;;;;;;4975033;28;20173;-70
2023/07/26 03:38:33;;;;;;;2.73;1.50;;;25.00;48.60;;;;;;4975198;28;20230;-70
2023/07/26 03:40:59;;;;;;;2.07;1.50;;;25.00;48.60;;;;;;4975140;28;20189;-69
2023/07/26 03:43:24;;;;;;;2.47;1.77;;;25.00;48.60;;;;;;4975051;28;20184;-69
2023/07/26 03:45:50;;;;;;;1.93;1.40;;;25.00;48.60;;;;;;4975334;28;20166;-69
2023/07/26 03:48:15;;;;;;;3.10;1.87;;;25.00;48.70;;;;;;4957712;28;20185;-70
2023/07/26 03:50:41;;;;;;;2.23;1.50;;;25.00;48.70;;;;;;4975014;28;20197;-70
2023/07/26 03:53:07;;;;;;;3.07;1.40;;;25.00;48.70;;;;;;4975201;28;20178;-70
2023/07/26 03:55:32;;;;;;;1.87;1.57;;;25.00;48.70;;;;;;4974764;28;20177;-70
2023/07/26 03:57:58;;;;;;;1.73;1.53;;;24.90;48.60;;;;;;4974030;28;20178;-70
2023/07/26 04:00:23;;;;;;;4.70;1.50;;;24.90;48.50;;;;;;4974842;28;20585;-69
2023/07/26 04:02:49;;;;;;;1.43;1.30;;;24.90;48.50;;;;;;4974749;28;20230;-70
2023/07/26 04:05:15;;;;;;;2.30;1.60;;;24.90;48.40;;;;;;4974803;28;20192;-70
2023/07/26 04:07:40;;;;;;;1.63;1.30;;;24.90;48.40;;;;;;4974272;28;20178;-70
2023/07/26 04:10:06;;;;;;;2.70;1.90;;;24.90;48.40;;;;;;4974606;28;20205;-69
2023/07/26 04:12:32;;;;;;;2.57;1.50;;;24.90;48.40;;;;;;4957699;28;20217;-69
2023/07/26 04:14:58;;;;;;;2.67;1.50;;;24.90;49.00;;;;;;4974591;28;20444;-70
2023/07/26 04:17:23;;;;;;;5.33;1.80;;;24.90;48.50;;;;;;4974804;28;20225;-69
2023/07/26 04:19:49;;;;;;;2.23;1.53;;;24.90;48.60;;;;;;4974368;28;20220;-69
2023/07/26 04:22:15;;;;;;;2.97;1.33;;;24.90;48.60;;;;;;4974422;28;20181;-69
2023/07/26 04:24:44;;;;;;;2.20;1.30;;;24.90;48.70;;;;;;4972913;28;20635;-70
2023/07/26 04:27:10;;;;;;;1.50;1.40;;;24.90;48.80;;;;;;4974658;28;20253;-69
2023/07/26 04:29:36;;;;;;;1.63;1.40;;;24.90;48.80;;;;;;4974408;28;20879;-70
2023/07/26 04:32:01;;;;;;;1.83;1.60;;;24.90;48.90;;;;;;4974174;28;20527;-69
2023/07/26 04:34:27;;;;;;;1.47;1.30;;;24.90;48.90;;;;;;4974561;28;20204;-70
2023/07/26 04:36:53;;;;;;;2.50;1.60;;;24.90;49.00;;;;;;4974175;28;20193;-70
2023/07/26 04:39:19;;;;;;;1.30;1.20;;;24.90;49.00;;;;;;4973976;28;20236;-69
2023/07/26 04:41:44;;;;;;;2.87;1.40;;;24.90;49.00;;;;;;4974320;28;20635;-69
2023/07/26 04:44:10;;;;;;;2.43;1.83;;;25.00;49.10;;;;;;4973657;28;20185;-69
2023/07/26 04:46:36;;;;;;;1.73;1.57;;;25.00;49.10;;;;;;4973857;28;20416;-70
2023/07/26 04:49:04;;;;;;;2.37;1.33;;;24.90;49.00;;;;;;4974443;28;20639;-70
2023/07/26 04:51:30;;;;;;;1.93;1.37;;;25.00;49.10;;;;;;4974087;28;20193;-70
2023/07/26 04:53:55;;;;;;;2.17;1.40;;;24.90;49.00;;;;;;4974130;28;20416;-70
2023/07/26 04:56:25;;;;;;;1.93;1.47;;;24.90;49.00;;;;;;4973685;28;20181;-69
2023/07/26 04:58:51;;;;;;;2.30;1.30;;;25.00;49.10;;;;;;4973917;28;20224;-70
2023/07/26 05:01:17;;;;;;;2.17;1.20;;;25.00;49.10;;;;;;4973992;28;20779;-69
2023/07/26 05:03:42;;;;;;;2.93;1.70;;;25.00;49.20;;;;;;4974195;28;20417;-69
2023/07/26 05:06:10;;;;;;;3.20;1.47;;;25.00;49.20;;;;;;4973455;28;20193;-70
2023/07/26 05:08:36;;;;;;;3.40;1.53;;;25.00;49.10;;;;;;4978484;28;20201;-71
2023/07/26 05:11:02;;;;;;;1.93;1.50;;;25.00;49.20;;;;;;4980183;28;20503;-69
2023/07/26 05:13:27;;;;;;;2.43;1.50;;;25.00;49.20;;;;;;4980747;28;20193;-70
2023/07/26 05:15:53;;;;;;;1.70;1.27;;;25.00;49.20;;;;;;4978270;28;20253;-68
2023/07/26 05:18:19;;;;;;;2.37;1.90;;;25.00;49.20;;;;;;4979921;28;20662;-69
2023/07/26 05:20:44;;;;;;;2.97;1.67;;;25.00;49.30;;;;;;4980098;28;20205;-69
2023/07/26 05:23:10;;;;;;;3.57;1.90;;;25.00;49.20;;;;;;4979333;28;20638;-68
2023/07/26 05:25:38;;;;;;;2.03;1.40;;;25.00;49.20;;;;;;4979022;28;20174;-69
2023/07/26 05:28:04;;;;;;;5.40;1.77;;;25.00;49.20;;;;;;4979542;28;20260;-69
2023/07/26 05:30:29;;;;;;;2.33;1.30;;;25.00;49.20;;;;;;4979033;28;20468;-69
2023/07/26 05:32:55;;;;;;;1.80;1.40;;;25.00;49.20;;;;;;4979202;28;20184;-69
2023/07/26 05:35:20;;;;;;;2.33;1.50;;;25.00;49.20;;;;;;4978559;28;20177;-69
2023/07/26 05:37:46;;;;;;;2.83;1.40;;;25.10;49.20;;;;;;4978238;28;20213;-69
2023/07/26 05:40:13;;;;;;;4.07;1.70;;;25.00;49.30;;;;;;4980105;28;20240;-70
2023/07/26 05:42:39;;;;;;;3.00;1.50;;;25.10;49.40;;;;;;4980696;28;20174;-69
2023/07/26 05:45:05;;;;;;;1.60;1.20;;;25.10;49.30;;;;;;4981034;28;20480;-69
2023/07/26 05:47:33;;;;;;;2.10;1.20;;;25.10;49.10;;;;;;4980180;28;20260;-70
2023/07/26 05:49:59;;;;;;;1.57;1.40;;;25.10;49.20;;;;;;4980031;28;20498;-70
2023/07/26 05:52:25;;;;;;;2.00;1.17;;;25.10;49.20;;;;;;4979965;28;20933;-69
2023/07/26 05:54:50;;;;;;;1.50;1.13;;;25.10;49.10;;;;;;4962512;28;20455;-70
2023/07/26 05:57:16;;;;;;;3.00;1.50;;;25.10;49.10;;;;;;4980854;28;20182;-70
2023/07/26 05:59:42;;;;;;;2.00;1.30;;;25.10;49.10;;;;;;4980117;28;20296;-70
2023/07/26 06:02:07;;;;;;;1.50;1.30;;;25.10;49.20;;;;;;4979946;28;20180;-70
2023/07/26 06:04:33;;;;;;;2.37;1.30;;;25.20;49.20;;;;;;4980142;28;20585;-69
2023/07/26 06:06:59;;;;;;;1.60;1.40;;;25.10;49.20;;;;;;4979967;28;20192;-68
2023/07/26 06:09:25;;;;;;;2.10;1.30;;;25.20;49.20;;;;;;4980143;28;20508;-68
2023/07/26 06:11:51;;;;;;;2.40;1.70;;;25.20;49.30;;;;;;4963031;28;20182;-70
2023/07/26 06:14:16;;;;;;;2.83;1.77;;;25.20;49.30;;;;;;4980414;28;20437;-69
2023/07/26 06:16:42;;;;;;;2.23;1.50;;;25.20;49.30;;;;;;4979214;28;20753;-69
2023/07/26 06:19:08;;;;;;;2.00;1.23;;;25.20;49.30;;;;;;4979508;28;20228;-69
2023/07/26 06:21:34;;;;;;;2.43;1.60;;;25.20;49.30;;;;;;4979149;28;20174;-70
2023/07/26 06:23:59;;;;;;;1.83;1.40;;;25.20;49.30;;;;;;4979950;28;20405;-70
2023/07/26 06:26:25;;;;;;;1.67;1.10;;;25.20;49.30;;;;;;4979399;28;20264;-69
2023/07/26 06:28:50;;;;;;;1.60;1.40;;;25.20;49.30;;;;;;4962122;28;20178;-70
2023/07/26 06:31:16;;;;;;;1.83;1.30;;;25.20;49.40;;;;;;4979184;28;20196;-70
2023/07/26 06:33:42;;;;;;;2.20;1.70;;;25.30;49.40;;;;;;4979436;28;20209;-70
2023/07/26 06:36:07;;;;;;;1.60;1.40;;;25.30;49.40;;;;;;4978253;28;20174;-69
2023/07/26 06:38:33;;;;;;;2.90;1.60;;;25.30;49.50;;;;;;4979414;28;20166;-69
2023/07/26 06:41:00;;;;;;;1.40;1.20;;;25.30;49.50;;;;;;4978898;28;20207;-70
2023/07/26 06:43:26;;;;;;;1.23;1.13;;;25.30;49.40;;;;;;4979644;28;20437;-69
2023/07/26 06:45:52;;;;;;;1.50;1.40;;;25.30;49.40;;;;;;4979518;28;20933;-69
2023/07/26 06:48:19;;;;;;;1.80;1.20;;;25.30;49.40;;;;;;4979702;28;20596;-70
2023/07/26 06:50:45;;;;;;;2.00;1.20;;;25.30;49.40;;;;;;4979078;28;20451;-69
2023/07/26 06:53:10;;;;;;;1.40;1.10;;;25.30;49.40;;;;;;4978859;28;20421;-69
2023/07/26 06:55:36;;;;;;;2.37;1.40;;;25.30;50.00;;;;;;4979014;28;20417;-70
2023/07/26 06:58:03;;;;;;;2.00;1.23;;;25.30;49.40;;;;;;4978394;28;20232;-70
2023/07/26 07:00:28;;;;;;;2.10;1.30;;;25.40;49.40;;;;;;4979121;28;20465;-70
2023/07/26 07:02:56;;;;;;;1.50;1.23;;;25.30;49.40;;;;;;4978789;28;20433;-69
2023/07/26 07:05:22;;;;;;;1.87;1.20;;;25.40;49.40;;;;;;4978862;28;20184;-70
2023/07/26 07:07:48;;;;;;;1.40;1.00;;;25.40;49.40;;;;;;4979009;28;20420;-69
2023/07/26 07:10:14;;;;;;;3.03;1.60;;;25.40;49.40;;;;;;4978689;28;20437;-69
2023/07/26 07:12:39;;;;;;;2.10;1.30;;;25.40;49.40;;;;;;4960985;28;20193;-69
2023/07/26 07:15:06;;;;;;;2.57;1.20;;;25.40;49.40;;;;;;4978397;28;20243;-69
2023/07/26 07:17:32;;;;;;;1.60;1.20;;;25.40;49.40;;;;;;4979096;28;20269;-69
2023/07/26 07:19:57;;;;;;;2.50;1.57;;;25.40;49.40;;;;;;4961363;28;20480;-69
2023/07/26 07:22:25;;;;;;;1.77;1.30;;;25.40;49.40;;;;;;4978199;28;20429;-70
2023/07/26 07:24:53;;;;;;;1.60;1.10;;;25.40;49.30;;;;;;4977371;28;20170;-70
2023/07/26 07:27:23;;;;;;;2.00;1.30;;;25.40;49.30;;;;;;4978908;28;20456;-69
2023/07/26 07:29:48;;;;;;;2.70;1.40;;;25.40;49.30;;;;;;4977829;28;20444;-70
2023/07/26 07:32:14;;;;;;;1.20;1.00;;;25.40;49.30;;;;;;4977046;28;20433;-69
2023/07/26 07:34:39;;;;;;;1.97;1.20;;;25.40;49.30;;;;;;4978040;28;20181;-70
2023/07/26 07:37:05;;;;;;;2.37;1.47;;;25.40;49.30;;;;;;4977667;28;20265;-70
2023/07/26 07:39:32;;;;;;;3.23;1.40;;;25.40;49.30;;;;;;4977317;28;20619;-70
2023/07/26 07:41:57;;;;;;;1.87;1.13;;;25.40;49.30;;;;;;4977942;28;20170;-70
2023/07/26 07:44:23;;;;;;;2.43;1.30;;;25.40;49.30;;;;;;4959854;28;20417;-70
2023/07/26 07:46:49;;;;;;;2.80;1.40;;;25.40;49.20;;;;;;4977043;28;20176;-69
2023/07/26 07:49:15;;;;;;;1.50;1.27;;;25.40;49.20;;;;;;4977314;28;20201;-69
2023/07/26 07:51:41;;;;;;;2.17;1.50;;;25.40;49.20;;;;;;4977227;28;20177;-69
2023/07/26 07:54:06;;;;;;;1.80;1.30;;;25.40;49.10;;;;;;4976997;28;20798;-69
2023/07/26 07:56:32;;;;;;;2.00;1.13;;;25.40;49.10;;;;;;4976781;28;20173;-69
2023/07/26 07:58:57;;;;;;;1.43;1.10;;;25.40;49.00;;;;;;4976975;28;20261;-69
2023/07/26 08:01:23;;;;;;;2.87;1.53;;;25.40;49.00;;;;;;4977055;28;20173;-68
2023/07/26 08:03:49;;;;;;;1.60;1.20;;;25.40;49.10;;;;;;4977359;28;20647;-69
2023/07/26 08:06:15;;;;;;;2.00;1.07;;;25.40;49.10;;;;;;4976839;28;20289;-69
2023/07/26 08:08:40;;;;;;;1.27;1.17;;;25.50;49.10;;;;;;4977537;28;20170;-69
2023/07/26 08:11:06;;;;;;;1.30;1.10;;;25.40;49.00;;;;;;4977796;28;20221;-70
2023/07/26 08:13:33;;;;;;;1.67;1.30;;;25.40;48.90;;;;;;4977044;28;20703;-69
2023/07/26 08:15:59;;;;;;;1.67;1.30;;;25.40;48.90;;;;;;4959839;28;20449;-69
2023/07/26 08:18:24;;;;;;;2.43;1.63;;;25.40;48.90;;;;;;4977333;28;20429;-69
2023/07/26 08:20:50;;;;;;;1.93;0.93;;;25.40;48.90;;;;;;4976921;28;20216;-69
2023/07/26 08:23:16;;;;;;;1.33;1.00;;;25.40;49.00;;;;;;4977052;28;20185;-69
2023/07/26 08:25:41;;;;;;;3.13;1.30;;;25.40;49.00;;;;;;4976496;28;20232;-69
2023/07/26 08:28:08;;;;;;;1.80;1.20;;;25.40;49.60;;;;;;4977126;28;20181;-69
2023/07/26 08:30:34;;;;;;;1.30;1.20;;;25.50;49.10;;;;;;4977130;28;20225;-69
2023/07/26 08:33:00;;;;;;;1.87;1.30;;;25.40;49.00;;;;;;4976817;28;20397;-69
2023/07/26 08:35:26;;;;;;;1.60;1.10;;;25.40;49.10;;;;;;4977433;28;20264;-69
2023/07/26 08:37:52;;;;;;;1.60;1.13;;;25.40;49.10;;;;;;4977242;28;20471;-68
2023/07/26 08:40:18;;;;;;;1.80;1.00;;;25.40;49.10;;;;;;4977367;28;20212;-68
2023/07/26 08:42:45;;;;;;;1.57;1.13;;;25.50;49.20;;;;;;4976675;28;20180;-68
2023/07/26 08:45:10;;;;;;;1.40;1.17;;;25.40;49.20;;;;;;4976837;28;20780;-69
2023/07/26 08:47:36;;;;;;;1.47;1.17;;;25.40;49.20;;;;;;4977304;28;20410;-69
2023/07/26 08:50:07;;;;;;;2.60;1.03;;;25.40;49.20;;;;;;4977380;28;20201;-69
2023/07/26 08:52:33;;;;;;;1.73;1.30;;;25.50;49.30;;;;;;4977225;28;20925;-69
2023/07/26 08:54:59;;;;;;;2.20;1.17;;;25.40;49.20;;;;;;4958778;28;20937;-69
2023/07/26 08:57:25;;;;;;;6.30;1.20;;;25.50;49.30;;;;;;4977137;28;20475;-69
2023/07/26 08:59:51;;;;;;;1.73;1.20;;;25.50;49.30;;;;;;4975794;28;20472;-69
2023/07/26 09:02:18;;;;;;;2.63;1.20;;;25.50;49.30;;;;;;4976997;28;20413;-69
2023/07/26 09:04:45;;;;;;;1.40;1.20;;;25.50;49.30;;;;;;4977500;28;20174;-69
2023/07/26 09:07:12;;;;;;;1.10;1.00;;;25.50;49.20;;;;;;4977003;28;20420;-70
2023/07/26 09:09:38;;;;;;;1.83;1.27;;;25.50;49.20;;;;;;4977248;28;20881;-70
2023/07/26 09:12:04;;;;;;;1.83;1.10;;;25.50;49.20;;;;;;4977427;28;20417;-69
2023/07/26 09:14:32;;;;;;;1.43;1.27;;;25.50;49.20;;;;;;4976888;28;20600;-69
2023/07/26 09:16:59;;;;;;;1.57;1.20;;;25.50;49.20;;;;;;4976172;28;20421;-69
2023/07/26 09:19:29;;;;;;;2.33;1.17;;;25.50;49.20;;;;;;4975726;28;20460;-69
2023/07/26 09:22:01;;;;;;;1.53;1.20;;;25.50;49.30;;;;;;4975809;28;20749;-69
2023/07/26 09:24:33;;;;;;;1.73;0.97;;;25.50;49.30;;;;;;4975141;28;20439;-69
2023/07/26 09:27:06;;;;;;;2.40;1.10;;;25.50;49.30;;;;;;4974815;28;20968;-68
2023/07/26 09:29:33;;;;;;;1.00;0.90;;;25.50;49.30;;;;;;4974893;28;20465;-69
2023/07/26 09:31:59;;;;;;;1.60;0.97;;;25.50;49.30;;;;;;4974696;28;20433;-69
2023/07/26 09:34:25;;;;;;;1.33;1.23;;;25.50;49.30;;;;;;4974719;28;20882;-69
2023/07/26 09:36:52;;;;;;;1.20;1.10;;;25.50;49.30;;;;;;4957276;28;20447;-69
2023/07/26 09:39:20;;;;;;;1.27;1.00;;;25.50;49.30;;;;;;4974965;28;20599;-69
2023/07/26 09:41:46;;;;;;;2.07;1.20;;;25.50;49.30;;;;;;4974471;28;20417;-69
2023/07/26 09:44:24;;;;;;;1.77;1.13;;;25.50;49.30;;;;;;4975719;28;21026;-69
2023/07/26 09:46:53;;;;;;;1.00;0.83;;;25.50;49.40;;;;;;4975354;28;20166;-69
2023/07/26 09:49:21;;;;;;;1.30;1.10;;;25.50;49.30;;;;;;4975269;28;20440;-69
2023/07/26 09:51:48;;;;;;;1.40;0.97;;;25.50;49.30;;;;;;4975338;28;20440;-69
2023/07/26 09:54:15;;;;;;;1.20;0.90;;;25.50;49.30;;;;;;4974865;28;20424;-70
2023/07/26 09:56:41;;;;;;;1.70;1.30;;;25.50;49.20;;;;;;4976304;28;20421;-69
2023/07/26 09:59:11;;;;;;;3.63;1.00;;;25.50;49.20;;;;;;4977636;28;20984;-69
2023/07/26 10:01:42;;;;;;;1.73;1.20;;;25.50;49.30;;;;;;4977956;28;20220;-68
2023/07/26 10:04:34;;;;;;;6.60;1.37;;;25.50;49.20;;;;;;4977396;28;20996;-69
2023/07/26 10:07:02;;;;;;;1.47;1.00;;;25.50;49.20;;;;;;4977870;28;20396;-69
2023/07/26 10:09:32;;;;;;;1.70;0.97;;;25.50;49.30;;;;;;4978133;28;20437;-70
2023/07/26 10:11:59;;;;;;;1.60;1.10;;;25.50;49.30;;;;;;4960227;28;20958;-69
2023/07/26 10:14:25;;;;;;;1.40;1.07;;;25.50;49.30;;;;;;4977766;28;20427;-70
2023/07/26 10:16:53;;;;;;;1.30;0.90;;;25.50;49.30;;;;;;4977658;28;20452;-69
2023/07/26 10:19:21;;;;;;;1.30;1.00;;;25.50;49.30;;;;;;4977639;28;20555;-70
2023/07/26 10:21:48;;;;;;;1.10;1.00;;;25.50;49.30;;;;;;4960309;28;20421;-70
2023/07/26 10:24:15;;;;;;;1.83;1.10;;;25.50;49.30;;;;;;4977377;28;20500;-70
2023/07/26 10:26:42;;;;;;;1.63;1.07;;;25.50;49.30;;;;;;4960172;28;20448;-69
2023/07/26 10:29:08;;;;;;;1.30;1.00;;;25.40;49.30;;;;;;4976879;28;20425;-69
2023/07/26 10:31:35;;;;;;;1.20;0.93;;;25.50;49.40;;;;;;4977143;28;20459;-69
2023/07/26 10:34:03;;;;;;;1.40;1.00;;;25.40;49.30;;;;;;4977778;28;20225;-69
2023/07/26 10:36:33;;;;;;;2.20;1.40;;;25.50;49.40;;;;;;4977548;28;20428;-69
2023/07/26 10:39:07;;;;;;;2.70;1.53;;;25.40;49.40;;;;;;4977687;28;20439;-69
2023/07/26 10:41:34;;;;;;;5.10;1.77;;;25.40;49.40;;;;;;4977290;28;20405;-68
2023/07/26 10:44:07;;;;;;;3.20;1.80;;;25.40;49.40;;;;;;4977123;28;20413;-69
2023/07/26 10:46:51;;;;;;;3.60;2.33;;;25.40;49.40;;;;;;4959750;28;20414;-69
2023/07/26 10:49:21;;;;;;;4.60;1.80;;;25.50;49.50;;;;;;4977147;28;20512;-69
2023/07/26 10:51:56;;;;;;;7.20;2.87;;;25.40;49.50;;;;;;4960294;28;20429;-68
2023/07/26 10:54:48;;;;;;;6.53;4.40;;;25.40;49.50;;;;;;4977060;28;20401;-69
2023/07/26 10:57:26;;;;;;;13.30;4.00;;;25.40;49.60;;;;;;4977166;28;20902;-70
2023/07/26 11:00:04;;;;;;;14.17;5.50;;;25.40;49.70;;;;;;4976311;28;20464;-69
2023/07/26 11:02:45;;;;;;;8.53;4.50;;;25.40;49.70;;;;;;4977383;28;20390;-69
2023/07/26 11:05:19;;;;;;;13.20;4.17;;;25.40;49.80;;;;;;4977216;28;20408;-69
2023/07/26 11:08:05;;;;;;;11.57;4.80;;;25.40;49.80;;;;;;4960025;28;20424;-69
2023/07/26 11:10:33;;;;;;;8.63;4.50;;;25.40;49.80;;;;;;4977291;28;20436;-69
2023/07/26 11:13:07;;;;;;;8.67;4.43;;;25.40;49.90;;;;;;4977040;28;20504;-68
2023/07/26 11:15:34;;;;;;;11.00;4.83;;;25.40;50.00;;;;;;4977114;28;20420;-69
2023/07/26 11:18:00;;;;;;;13.17;4.00;;;25.40;50.00;;;;;;4977089;28;20413;-69
2023/07/26 11:20:26;;;;;;;7.47;3.63;;;25.40;50.00;;;;;;4975287;28;20479;-69
2023/07/26 11:22:52;;;;;;;11.03;4.87;;;25.40;50.00;;;;;;4977180;28;20181;-69
2023/07/26 11:25:19;;;;;;;11.00;4.47;;;25.30;50.00;;;;;;4976543;28;20170;-69
2023/07/26 11:27:46;;;;;;;12.60;4.93;;;25.40;50.20;;;;;;4976836;28;20459;-69
2023/07/26 11:30:16;;;;;;;8.80;4.40;;;25.40;50.20;;;;;;4976127;28;20433;-69
2023/07/26 11:32:43;;;;;;;6.53;4.00;;;25.40;50.20;;;;;;4976937;28;20421;-69
2023/07/26 11:35:09;;;;;;;11.00;4.90;;;25.30;50.20;;;;;;4976884;28;20820;-70
2023/07/26 11:37:35;;;;;;;12.73;5.20;;;25.40;50.30;;;;;;4976982;28;20417;-69
2023/07/26 11:40:06;;;;;;;13.80;4.87;;;25.40;50.30;;;;;;4976525;28;20523;-69
2023/07/26 11:42:35;;;;;;;11.87;5.03;;;25.40;50.40;;;;;;4976535;28;20212;-69
2023/07/26 11:45:05;;;;;;;12.67;5.50;;;25.40;50.40;;;;;;4976190;28;20895;-69
2023/07/26 11:47:36;;;;;;;13.53;5.03;;;25.40;50.40;;;;;;4976051;28;20401;-70
2023/07/26 11:50:03;;;;;;;10.03;5.10;;;25.40;50.40;;;;;;4976039;28;20884;-69
2023/07/26 11:52:29;;;;;;;13.17;5.23;;;25.40;50.50;;;;;;4975904;28;20431;-69
2023/07/26 11:55:05;;;;;;;11.90;5.50;;;25.40;50.50;;;;;;4975952;28;20444;-70
2023/07/26 11:57:31;;;;;;;23.90;5.80;;;25.40;50.50;;;;;;4975711;28;20425;-69
2023/07/26 11:59:59;;;;;;;9.83;4.70;;;25.40;50.50;;;;;;4975526;28;20837;-69
2023/07/26 12:02:26;;;;;;;10.70;5.53;;;25.40;50.50;;;;;;4976146;28;20174;-69
2023/07/26 12:05:14;;;;;;;15.50;5.00;;;25.40;50.50;;;;;;4976169;28;20413;-70
2023/07/26 12:07:45;;;;;;;12.63;4.70;;;25.40;50.60;;;;;;4975706;28;20408;-70
2023/07/26 12:10:10;;;;;;;9.47;4.67;;;25.40;50.60;;;;;;4975686;28;20432;-69
2023/07/26 12:12:40;;;;;;;9.63;4.50;;;25.40;50.70;;;;;;4958121;28;20479;-69
2023/07/26 12:15:08;;;;;;;10.53;4.37;;;25.40;50.60;;;;;;4975780;28;20528;-69
2023/07/26 12:17:34;;;;;;;10.00;4.60;;;25.40;50.60;;;;;;4975156;28;20926;-69
2023/07/26 12:20:06;;;;;;;11.03;5.40;;;25.40;50.60;;;;;;4975473;28;20475;-69
2023/07/26 12:22:33;;;;;;;11.10;4.57;;;25.40;50.60;;;;;;4975831;28;20185;-68
2023/07/26 12:25:03;;;;;;;8.27;4.23;;;25.40;50.60;;;;;;4974990;28;20417;-70
2023/07/26 12:27:34;;;;;;;11.47;5.30;;;25.40;50.60;;;;;;4957615;28;20569;-69
2023/07/26 12:30:00;;;;;;;8.90;4.60;;;25.40;50.60;;;;;;4975225;28;20448;-68
2023/07/26 12:32:25;;;;;;;7.90;4.33;;;25.40;50.60;;;;;;4973603;28;20537;-69
2023/07/26 12:34:51;;;;;;;6.80;4.60;;;25.40;50.60;;;;;;4975322;28;20484;-70
2023/07/26 12:37:16;;;;;;;8.13;4.13;;;25.40;50.60;;;;;;4975356;28;20189;-69
2023/07/26 12:39:45;;;;;;;9.30;4.50;;;25.40;50.50;;;;;;4975202;28;20213;-69
2023/07/26 12:42:10;;;;;;;9.67;4.30;;;25.40;50.60;;;;;;4975025;28;20178;-69
2023/07/26 12:44:36;;;;;;;9.40;4.10;;;25.40;50.60;;;;;;4973829;28;20425;-69